• Join FlightAware (Why Join?)
  • Login
  • US Flag 
07:04AM EDT


 

Airport Tracker/Info


-or-


 

Live Flight TrackerFlight Track Log ✈ DAL268 ✈ 28-Sep-2013 ✈ KJFK - LLBG / TLV

Flight Track Log - Related Links

Times and Time Zones

All times are in EDT time to prevent confusion due to time zone crossing. See the DAL268 flight status page for this flight to view local times or setup timezone preferences in your user account.

Time Position Orientation Groundspeed Altitude Reporting Facility
EDT Latitude Longitude Course Direction KTS MPH feet Rate Location/Type
12:08AM 40.6320 -73.7800 360° North 100 115  Level FlightAware
12:08AM 40.6400 -73.7980 300° West 175 201 780 Level FlightAware
12:09AM 40.6500 -73.8240 297° West 188 216 600 1,440 Climbing FlightAware
12:09AM 40.6510 -73.8370 276° West 196 226 900 1,260 Climbing FlightAware
12:09AM 40.6460 -73.8580 253° West 210 242 1,300 1,080 Climbing FlightAware
12:09AM 40.6420 -73.8640 229° Southwest 214 246 1,400 1,020 Climbing FlightAware
12:09AM 40.6330 -73.8740 220° Southwest 228 262 1,600 1,020 Climbing FlightAware
12:10AM 40.6130 -73.8910 213° Southwest 250 288 1,900 900 Climbing FlightAware
12:10AM 40.6060 -73.8930 192° South 252 290 2,000 1,080 Climbing FlightAware
12:10AM 40.6020 -73.8940 191° South 255 293 2,100 1,080 Climbing FlightAware
12:10AM 40.5940 -73.8950 185° South 260 299 2,200 1,320 Climbing FlightAware
12:10AM 40.5700 -73.8870 166° South 273 314 2,700 2,160 Climbing FlightAware
12:11AM 40.5440 -73.8600 142° Southeast 276 318 3,800 2,760 Climbing FlightAware
12:11AM 40.5380 -73.8500 128° Southeast 276 318 4,200 2,580 Climbing FlightAware
12:11AM 40.5330 -73.8380 119° Southeast 277 319 4,500 2,520 Climbing FlightAware
12:11AM 40.5230 -73.8060 112° Southeast 282 325 5,400 2,700 Climbing FlightAware
12:12AM 40.5120 -73.7740 114° Southeast 286 329 6,300 2,640 Climbing FlightAware
12:12AM 40.5030 -73.7490 115° Southeast 288 331 7,000 2,220 Climbing FlightAware
12:12AM 40.4920 -73.7170 114° Southeast 298 343 7,700 2,160 Climbing FlightAware
12:13AM 40.4800 -73.6830 115° Southeast 303 349 8,500 2,580 Climbing FlightAware
12:13AM 40.4690 -73.6500 114° Southeast 305 351 9,400 2,160 Climbing FlightAware
12:14AM 40.4470 -73.5870 115° Southeast 324 373 10,500 1,560 Climbing FlightAware
12:14AM 40.4240 -73.5190 114° Southeast 354 407 11,300 1,200 Climbing FlightAware
12:15AM 40.3990 -73.4470 114° Southeast 382 440 12,000 1,200 Climbing FlightAware
12:15AM 40.3750 -73.3780 115° Southeast 403 464 12,700 1,740 Climbing FlightAware
12:16AM 40.3380 -73.3020 123° Southeast 415 478 14,000 2,220 Climbing FlightAware
12:17AM 40.2940 -73.2280 128° Southeast 422 486 15,400 2,100 Climbing FlightAware
12:17AM 40.2510 -73.1540 127° Southeast 429 494 16,600 1,800 Climbing FlightAware
12:18AM 40.2130 -73.0920 129° Southeast 437 503 17,500 1,740 Climbing FlightAware
12:18AM 40.1660 -73.0120 128° Southeast 445 512 18,600 1,740 Climbing FlightAware
12:19AM 40.1255 -72.9428 127° Southeast 453 521 19,500 1,680 Climbing FlightAware ADS-B (KSNC)
12:19AM 40.0846 -72.8754 128° Southeast 458 527 20,400 1,500 Climbing FlightAware ADS-B (KSNC)
12:20AM 40.0345 -72.7916 128° Southeast 467 537 21,300 1,380 Climbing FlightAware ADS-B (KSNC)
12:21AM 39.9850 -72.7090 128° Southeast 472 543 22,200 1,380 Climbing FlightAware
12:21AM 39.9390 -72.6320 128° Southeast 479 551 23,000 1,320 Climbing FlightAware
12:22AM 39.8890 -72.5490 128° Southeast 485 558 23,800 1,320 Climbing FlightAware
12:22AM 39.8420 -72.4710 128° Southeast 489 563 24,600 1,500 Climbing FlightAware
12:23AM 39.8067 -72.4130 128° Southeast 492 566 25,300 1,260 Climbing FlightAware ADS-B (KSNC)
12:24AM 39.7450 -72.3100 128° Southeast 496 571 26,100 1,020 Climbing FlightAware
12:24AM 39.6970 -72.2300 128° Southeast 501 577 26,700 480 Climbing FlightAware
12:25AM 39.6520 -72.1560 128° Southeast 501 577 26,700  Level FlightAware
12:25AM 39.6080 -72.0830 128° Southeast 501 577 26,700  Level FlightAware
12:26AM 39.5630 -72.0090 128° Southeast 501 577 26,700  Level FlightAware
12:27AM 39.5190 -71.9360 128° Southeast 501 577 26,700  Level FlightAware
12:27AM 39.4760 -71.8640 128° Southeast 501 577 26,700  Level FlightAware
12:28AM 39.4310 -71.7890 128° Southeast 501 577 26,700 2,100 Level FlightAware
12:29AM 39.2656 -71.5375 128° Southeast 493 567 31,000 1,740 Climbing New York Center
12:30AM 39.1808 -71.4028 129° Southeast 488 562 31,000  Level New York Center
12:31AM 39.0961 -71.2708 130° Southeast 488 562 31,000  Level New York Center
12:32AM 39.0153 -71.1311 127° Southeast 488 562 31,000  Level New York Center
12:33AM 38.9281 -70.9947 129° Southeast 488 562 31,000  Level New York Center
12:34AM 38.8450 -70.8636 129° Southeast 483 556 31,000  Level New York Center
12:35AM 38.7553 -70.7356 132° Southeast 483 556 31,000  Level New York Center
12:36AM 38.6867 -70.6239 128° Southeast 483 556 31,000  Level New York Center
12:37AM 38.5861 -70.4647 129° Southeast 470 541 31,000  Level New York Center
12:38AM 38.4983 -70.3375 131° Southeast 476 548 31,000  Level New York Center
12:39AM 38.4186 -70.1950 125° Southeast 487 560 31,000  Level New York Center
12:40AM 38.3325 -70.0739 132° Southeast 487 560 31,000  Level New York Center
12:41AM 38.3333 -70.0667 108° East 485 558 31,000  Level New York Oceanic (ODAPS)
12:41AM 38.2856 -69.9128 108° East 476 548 31,000  Level New York Center
12:42AM 38.2553 -69.7650 105° East 463 533 31,000  Level New York Center
12:42AM 38.2500 -69.7333 108° East 486 559 31,000  Level New York Oceanic (ODAPS)
12:44AM 38.1833 -69.4667 108° East 487 560 31,000  Level New York Oceanic (ODAPS)
12:50AM 37.9313 -68.5254 109° East 487 560 31,000  Level FlightAware Transoceanic
12:51AM 37.8886 -68.3691 109° East 487 560 31,000  Level FlightAware Transoceanic
12:52AM 37.8456 -68.2131 109° East 487 560 31,000  Level FlightAware Transoceanic
12:52AM 37.8333 -68.1833 109° East 501 577 31,000  Level New York Oceanic (ODAPS)
12:53AM 37.8025 -68.0572 109° East 487 560 31,000  Level FlightAware Transoceanic
12:54AM 37.7591 -67.9015 109° East 487 560 31,000  Level FlightAware Transoceanic
12:55AM 37.7156 -67.7459 110° East 487 560 31,000  Level FlightAware Transoceanic
12:56AM 37.6718 -67.5906 110° East 487 560 31,000  Level FlightAware Transoceanic
12:57AM 37.6279 -67.4354 110° East 487 560 31,000  Level FlightAware Transoceanic
12:58AM 37.5795 -67.2707 110° East 501 577 31,000  Level FlightAware Transoceanic
12:59AM 37.5365 -67.1191 110° East 501 577 31,000  Level FlightAware Transoceanic
01:00AM 37.4934 -66.9678 110° East 501 577 31,000  Level FlightAware Transoceanic
01:01AM 37.4500 -66.8167 93° East 501 577 31,000  Level FlightAware Transoceanic
01:01AM 37.4500 -66.7500 93° East 512 589 31,000  Level New York Oceanic (ODAPS)
01:02AM 37.4430 -66.6315 93° East 501 577 31,000  Level FlightAware Transoceanic
01:03AM 37.4357 -66.4464 93° East 501 577 31,000  Level FlightAware Transoceanic
01:03AM 37.4333 -66.4167 93° East 517 595 31,000  Level New York Oceanic (ODAPS)
01:04AM 37.4281 -66.2613 93° East 501 577 31,000  Level FlightAware Transoceanic
01:05AM 37.4203 -66.0762 93° East 501 577 31,000  Level FlightAware Transoceanic
01:06AM 37.4121 -65.8912 93° East 501 577 31,000  Level FlightAware Transoceanic
01:07AM 37.4045 -65.6794 93° East 512 589 31,000  Level FlightAware Transoceanic
01:08AM 37.3960 -65.5011 93° East 512 589 31,000  Level FlightAware Transoceanic
01:09AM 37.3852 -65.3425 94° East 517 595 31,000  Level FlightAware Transoceanic
01:10AM 37.3763 -65.1637 94° East 517 595 31,000  Level FlightAware Transoceanic
01:11AM 37.3670 -64.9848 94° East 517 595 31,000  Level FlightAware Transoceanic
01:12AM 37.3575 -64.8060 94° East 517 595 31,000  Level FlightAware Transoceanic
01:13AM 37.3478 -64.6273 94° East 517 595 31,000  Level FlightAware Transoceanic
01:14AM 37.3377 -64.4486 94° East 517 595 31,000  Level FlightAware Transoceanic
01:15AM 37.3274 -64.2699 94° East 517 595 31,000  Level FlightAware Transoceanic
01:16AM 37.3169 -64.0913 94° East 517 595 31,000  Level FlightAware Transoceanic
01:17AM 37.3060 -63.9128 94° East 517 595 31,000  Level FlightAware Transoceanic
01:18AM 37.2949 -63.7343 95° East 517 595 31,000  Level FlightAware Transoceanic
01:19AM 37.2835 -63.5558 95° East 517 595 31,000  Level FlightAware Transoceanic
01:20AM 37.2719 -63.3774 95° East 517 595 31,000  Level FlightAware Transoceanic
01:21AM 37.2600 -63.1991 95° East 517 595 31,000  Level FlightAware Transoceanic
01:22AM 37.2478 -63.0208 95° East 517 595 31,000  Level FlightAware Transoceanic
01:23AM 37.2353 -62.8426 95° East 517 595 31,000  Level FlightAware Transoceanic
01:23AM 37.2333 -62.8000 95° East 532 612 31,000  Level New York Oceanic (ODAPS)
01:24AM 37.2226 -62.6645 95° East 517 595 31,000  Level FlightAware Transoceanic
01:25AM 37.2096 -62.4864 95° East 517 595 31,000  Level FlightAware Transoceanic
01:26AM 37.1964 -62.3083 95° East 517 595 31,000  Level FlightAware Transoceanic
01:27AM 37.1829 -62.1303 95° East 517 595 31,000  Level FlightAware Transoceanic
01:28AM 37.1691 -61.9524 96° East 517 595 31,000  Level FlightAware Transoceanic
01:29AM 37.1479 -61.6780 96° East 532 612 31,000  Level FlightAware Transoceanic
01:30AM 37.1326 -61.4912 96° East 532 612 31,000  Level FlightAware Transoceanic
01:31AM 37.1171 -61.3045 96° East 532 612 31,000  Level FlightAware Transoceanic
01:32AM 37.1012 -61.1179 96° East 532 612 31,000  Level FlightAware Transoceanic
01:33AM 37.0851 -60.9314 96° East 532 612 31,000  Level FlightAware Transoceanic
01:34AM 37.0686 -60.7449 96° East 532 612 31,000  Level FlightAware Transoceanic
01:35AM 37.0519 -60.5586 96° East 532 612 31,000  Level FlightAware Transoceanic
01:36AM 37.0349 -60.3723 97° East 532 612 31,000  Level FlightAware Transoceanic
01:37AM 37.0176 -60.1861 97° East 532 612 31,000  Level FlightAware Transoceanic
01:38AM 37.0000 -60.0000 80° East 532 612 31,000  Level FlightAware Transoceanic
01:38AM 37.0000 -60.0000 80° East 561 646 31,000  Level New York Oceanic (ODAPS)
01:39AM 37.0276 -59.8068 80° East 532 612 31,000  Level FlightAware Transoceanic
01:40AM 37.0550 -59.6135 80° East 532 612 31,000  Level FlightAware Transoceanic
01:41AM 37.0820 -59.4200 80° East 532 612 31,000  Level FlightAware Transoceanic
01:42AM 37.1087 -59.2264 80° East 532 612 31,000  Level FlightAware Transoceanic
01:43AM 37.1350 -59.0327 80° East 532 612 31,000 480 Level FlightAware Transoceanic
01:43AM 37.1500 -58.9667 80° East 558 642 31,900  Climbing New York Oceanic (ODAPS)
01:44AM 37.1611 -58.8388 80° East 532 612 31,000 -720 Descending FlightAware Transoceanic
01:45AM 37.1868 -58.6448 81° East 561 646 31,000  Level FlightAware Transoceanic
01:46AM 37.2123 -58.4507 81° East 561 646 31,000  Level FlightAware Transoceanic
01:47AM 37.2374 -58.2564 81° East 561 646 31,000  Level FlightAware Transoceanic
01:48AM 37.2622 -58.0620 81° East 561 646 31,000 420 Level FlightAware Transoceanic
01:49AM 37.2961 -57.8344 81° East 558 642 31,900 420 Climbing FlightAware Transoceanic
01:50AM 37.3194 -57.6453 81° East 558 642 31,900  Level FlightAware Transoceanic
01:51AM 37.3423 -57.4561 81° East 558 642 31,900  Level FlightAware Transoceanic
01:52AM 37.3650 -57.2667 81° East 558 642 31,900  Level FlightAware Transoceanic
01:53AM 37.3874 -57.0773 82° East 558 642 31,900  Level FlightAware Transoceanic
01:54AM 37.4095 -56.8877 82° East 558 642 31,900  Level FlightAware Transoceanic
01:55AM 37.4313 -56.6980 82° East 558 642 31,900  Level FlightAware Transoceanic
01:56AM 37.4528 -56.5082 82° East 558 642 31,900  Level FlightAware Transoceanic
01:57AM 37.4739 -56.3183 82° East 558 642 31,900  Level FlightAware Transoceanic
01:58AM 37.4948 -56.1282 82° East 558 642 31,900  Level FlightAware Transoceanic
01:59AM 37.5154 -55.9381 82° East 558 642 31,900  Level FlightAware Transoceanic
02:00AM 37.5356 -55.7479 82° East 558 642 31,900  Level FlightAware Transoceanic
02:01AM 37.5556 -55.5576 83° East 558 642 31,900  Level FlightAware Transoceanic
02:02AM 37.5752 -55.3671 83° East 558 642 31,900  Level FlightAware Transoceanic
02:03AM 37.5946 -55.1766 83° East 558 642 31,900 600 Level FlightAware Transoceanic
02:03AM 37.6000 -55.0500 83° East 561 646 33,000  Climbing New York Oceanic (ODAPS)
02:04AM 37.6136 -54.9860 83° East 558 642 31,900 -960 Descending FlightAware Transoceanic
02:05AM 37.6324 -54.7952 83° East 558 642 31,900  Level FlightAware Transoceanic
02:06AM 37.6508 -54.6044 83° East 558 642 31,900  Level FlightAware Transoceanic
02:07AM 37.6689 -54.4135 83° East 558 642 31,900  Level FlightAware Transoceanic
02:08AM 37.6867 -54.2225 83° East 558 642 31,900  Level FlightAware Transoceanic
02:09AM 37.7042 -54.0314 83° East 558 642 31,900 540 Level FlightAware Transoceanic
02:10AM 37.7114 -53.8897 83° East 561 646 33,000 540 Climbing FlightAware Transoceanic
02:11AM 37.7289 -53.6960 84° East 561 646 33,000  Level FlightAware Transoceanic
02:12AM 37.7460 -53.5022 84° East 561 646 33,000  Level FlightAware Transoceanic
02:13AM 37.7628 -53.3083 84° East 561 646 33,000  Level FlightAware Transoceanic
02:14AM 37.7793 -53.1143 84° East 561 646 33,000  Level FlightAware Transoceanic
02:15AM 37.7955 -52.9202 84° East 561 646 33,000  Level FlightAware Transoceanic
02:16AM 37.8114 -52.7261 84° East 561 646 33,000  Level FlightAware Transoceanic
02:17AM 37.8270 -52.5318 84° East 561 646 33,000  Level FlightAware Transoceanic
02:18AM 37.8422 -52.3375 84° East 561 646 33,000  Level FlightAware Transoceanic
02:19AM 37.8571 -52.1431 85° East 561 646 33,000  Level FlightAware Transoceanic
02:20AM 37.8717 -51.9487 85° East 561 646 33,000  Level FlightAware Transoceanic
02:21AM 37.8860 -51.7541 85° East 561 646 33,000  Level FlightAware Transoceanic
02:22AM 37.8999 -51.5595 85° East 561 646 33,000  Level FlightAware Transoceanic
02:23AM 37.9136 -51.3648 85° East 561 646 33,000  Level FlightAware Transoceanic
02:24AM 37.9269 -51.1700 85° East 561 646 33,000  Level FlightAware Transoceanic
02:24AM 37.9333 -51.0333 85° East 579 666 33,000  Level New York Oceanic (ODAPS)
02:25AM 37.9399 -50.9752 85° East 561 646 33,000  Level FlightAware Transoceanic
02:26AM 37.9525 -50.7803 85° East 561 646 33,000  Level FlightAware Transoceanic
02:27AM 37.9649 -50.5853 85° East 561 646 33,000  Level FlightAware Transoceanic
02:28AM 37.9769 -50.3903 86° East 561 646 33,000  Level FlightAware Transoceanic
02:29AM 37.9886 -50.1952 86° East 561 646 33,000  Level FlightAware Transoceanic
02:30AM 38.0085 -49.7963 87° East 579 666 33,000  Level FlightAware Transoceanic
02:30AM 38.0000 -50.0000 87° East 578 665 33,000  Level New York Oceanic (ODAPS)
02:31AM 38.0166 -49.5925 87° East 579 666 33,000  Level FlightAware Transoceanic
02:32AM 38.0243 -49.3887 87° East 579 666 33,000  Level FlightAware Transoceanic
02:33AM 38.0318 -49.1849 87° East 579 666 33,000  Level FlightAware Transoceanic
02:34AM 38.0388 -48.9810 88° East 579 666 33,000  Level FlightAware Transoceanic
02:35AM 38.0455 -48.7771 88° East 579 666 33,000  Level FlightAware Transoceanic
02:36AM 38.0519 -48.5731 88° East 578 665 33,000  Level FlightAware Transoceanic
02:37AM 38.0579 -48.3691 88° East 578 665 33,000  Level FlightAware Transoceanic
02:38AM 38.0636 -48.1651 88° East 578 665 33,000  Level FlightAware Transoceanic
02:39AM 38.0689 -47.9610 88° East 578 665 33,000  Level FlightAware Transoceanic
02:40AM 38.0738 -47.7570 88° East 578 665 33,000  Level FlightAware Transoceanic
02:41AM 38.0784 -47.5528 88° East 578 665 33,000  Level FlightAware Transoceanic
02:42AM 38.0826 -47.3487 89° East 578 665 33,000  Level FlightAware Transoceanic
02:43AM 38.0865 -47.1446 89° East 578 665 33,000  Level FlightAware Transoceanic
02:44AM 38.0901 -46.9404 89° East 578 665 33,000  Level FlightAware Transoceanic
02:44AM 38.0833 -46.9167 89° East 580 667 33,000  Level New York Oceanic (ODAPS)
02:45AM 38.0933 -46.7362 89° East 578 665 33,000  Level FlightAware Transoceanic
02:46AM 38.0961 -46.5320 89° East 578 665 33,000  Level FlightAware Transoceanic
02:47AM 38.0986 -46.3277 89° East 578 665 33,000  Level FlightAware Transoceanic
02:48AM 38.1007 -46.1235 89° East 578 665 33,000  Level FlightAware Transoceanic
02:49AM 38.1025 -45.9192 89° East 578 665 33,000  Level FlightAware Transoceanic
02:50AM 38.0981 -45.6955 89° East 580 667 33,000  Level FlightAware Transoceanic
02:51AM 38.0993 -45.4920 90° East 580 667 33,000  Level FlightAware Transoceanic
02:52AM 38.1002 -45.2884 90° East 580 667 33,000  Level FlightAware Transoceanic
02:53AM 38.1008 -45.0848 90° East 580 667 33,000  Level FlightAware Transoceanic
02:54AM 38.1009 -44.8813 90° East 580 667 33,000  Level FlightAware Transoceanic
02:55AM 38.1008 -44.6777 90° East 580 667 33,000  Level FlightAware Transoceanic
02:56AM 38.1002 -44.4741 90° East 580 667 33,000  Level FlightAware Transoceanic
02:57AM 38.0994 -44.2705 90° East 580 667 33,000  Level FlightAware Transoceanic
02:58AM 38.0981 -44.0670 91° East 580 667 33,000  Level FlightAware Transoceanic
02:59AM 38.0966 -43.8634 91° East 580 667 33,000  Level FlightAware Transoceanic
03:00AM 38.0946 -43.6599 91° East 580 667 33,000  Level FlightAware Transoceanic
03:01AM 38.0924 -43.4564 91° East 580 667 33,000  Level FlightAware Transoceanic
03:02AM 38.0897 -43.2528 91° East 580 667 33,000  Level FlightAware Transoceanic
03:03AM 38.0868 -43.0493 91° East 580 667 33,000  Level FlightAware Transoceanic
03:04AM 38.0834 -42.8459 91° East 580 667 33,000  Level FlightAware Transoceanic
03:04AM 38.0833 -42.7333 91° East 588 677 33,000  Level New York Oceanic (ODAPS)
03:05AM 38.0797 -42.6424 91° East 580 667 33,000  Level FlightAware Transoceanic
03:06AM 38.0757 -42.4389 92° East 580 667 33,000  Level FlightAware Transoceanic
03:07AM 38.0713 -42.2355 92° East 580 667 33,000  Level FlightAware Transoceanic
03:08AM 38.0666 -42.0321 92° East 580 667 33,000  Level FlightAware Transoceanic
03:09AM 38.0615 -41.8288 92° East 580 667 33,000  Level FlightAware Transoceanic
03:10AM 38.0588 -41.6813 92° East 588 677 33,000  Level FlightAware Transoceanic
03:11AM 38.0527 -41.4710 92° East 588 677 33,000  Level FlightAware Transoceanic
03:12AM 38.0463 -41.2608 92° East 588 677 33,000  Level FlightAware Transoceanic
03:13AM 38.0395 -41.0505 92° East 588 677 33,000  Level FlightAware Transoceanic
03:14AM 38.0324 -40.8403 93° East 588 677 33,000  Level FlightAware Transoceanic
03:15AM 38.0248 -40.6302 93° East 588 677 33,000  Level FlightAware Transoceanic
03:16AM 38.0169 -40.4201 93° East 588 677 33,000  Level FlightAware Transoceanic
03:17AM 38.0087 -40.2100 93° East 588 677 33,000  Level FlightAware Transoceanic
03:18AM 38.0000 -40.0000 72° East 588 677 33,000  Level FlightAware Transoceanic
03:19AM 38.0502 -39.7977 73° East 588 677 33,000  Level FlightAware Transoceanic
03:20AM 38.1001 -39.5951 73° East 588 677 33,000  Level FlightAware Transoceanic
03:21AM 38.1496 -39.3923 73° East 588 677 33,000  Level FlightAware Transoceanic
03:22AM 38.1987 -39.1892 73° East 588 677 33,000  Level FlightAware Transoceanic
03:23AM 38.2475 -38.9858 73° East 588 677 33,000  Level FlightAware Transoceanic
03:24AM 38.2960 -38.7821 73° East 588 677 33,000  Level FlightAware Transoceanic
03:25AM 38.3441 -38.5782 73° East 588 677 33,000  Level FlightAware Transoceanic
03:26AM 38.3918 -38.3739 73° East 588 677 33,000  Level FlightAware Transoceanic
03:27AM 38.4392 -38.1694 74° East 588 677 33,000  Level FlightAware Transoceanic
03:28AM 38.4863 -37.9647 74° East 588 677 33,000  Level FlightAware Transoceanic
03:29AM 38.5330 -37.7597 74° East 588 677 33,000  Level FlightAware Transoceanic
03:30AM 38.5793 -37.5544 74° East 588 677 33,000  Level FlightAware Transoceanic
03:31AM 38.6252 -37.3489 74° East 588 677 33,000  Level FlightAware Transoceanic
03:32AM 38.6708 -37.1431 74° East 588 677 33,000  Level FlightAware Transoceanic
03:33AM 38.7161 -36.9370 74° East 588 677 33,000  Level FlightAware Transoceanic
03:34AM 38.7610 -36.7307 74° East 588 677 33,000  Level FlightAware Transoceanic
03:35AM 38.8055 -36.5241 75° East 588 677 33,000  Level FlightAware Transoceanic
03:36AM 38.8496 -36.3172 75° East 588 677 33,000  Level FlightAware Transoceanic
03:37AM 38.8934 -36.1101 75° East 588 677 33,000  Level FlightAware Transoceanic
03:38AM 38.9369 -35.9028 75° East 588 677 33,000  Level FlightAware Transoceanic
03:39AM 38.9799 -35.6952 75° East 588 677 33,000  Level FlightAware Transoceanic
03:40AM 39.0226 -35.4873 75° East 588 677 33,000  Level FlightAware Transoceanic
03:41AM 39.0649 -35.2792 75° East 588 677 33,000  Level FlightAware Transoceanic
03:42AM 39.1069 -35.0709 76° East 588 677 33,000  Level FlightAware Transoceanic
03:43AM 39.1484 -34.8623 76° East 588 677 33,000  Level FlightAware Transoceanic
03:44AM 39.1896 -34.6534 76° East 588 677 33,000  Level FlightAware Transoceanic
03:45AM 39.2305 -34.4443 76° East 588 677 33,000  Level FlightAware Transoceanic
03:45AM 39.2550 -34.3220 76° East 617 710 33,000  Level FlightAware
03:45AM 39.2810 -34.1870 76° East 617 710 33,000  Level FlightAware
03:46AM 39.3020 -34.0780 76° East 617 710 33,000  Level FlightAware
03:47AM 39.3230 -33.9680 76° East 617 710 33,000 420 Level FlightAware
03:47AM 39.3540 -33.8030 76° East 621 715 33,500 720 Climbing FlightAware
03:48AM 39.3850 -33.6420 76° East 621 715 34,000 240 Climbing FlightAware
03:49AM 39.4200 -33.4500 77° East 619 712 34,000  Level FlightAware
03:49AM 39.4430 -33.3250 77° East 616 709 34,000  Level FlightAware
03:50AM 39.4630 -33.2180 76° East 616 709 34,000  Level FlightAware
03:51AM 39.4910 -33.0600 77° East 614 707 34,000  Level FlightAware
03:51AM 39.5110 -32.9450 77° East 614 707 34,000  Level FlightAware
03:52AM 39.5340 -32.8200 77° East 615 708 34,000  Level FlightAware
03:52AM 39.5560 -32.6940 77° East 614 707 34,000  Level FlightAware
03:53AM 39.5800 -32.5620 77° East 615 708 34,000  Level FlightAware
03:53AM 39.6000 -32.4470 77° East 615 708 34,000  Level FlightAware
03:54AM 39.6230 -32.3180 77° East 615 708 34,000  Level FlightAware
03:55AM 39.6460 -32.1810 78° East 615 708 34,000  Level FlightAware
03:55AM 39.6660 -32.0660 77° East 615 708 34,000  Level FlightAware
03:56AM 39.6890 -31.9320 77° East 615 708 34,000  Level FlightAware
03:56AM 39.7120 -31.7990 77° East 615 708 34,000  Level FlightAware
03:57AM 39.7300 -31.6870 78° East 615 708 34,000  Level FlightAware
03:58AM 39.7530 -31.5540 77° East 615 708 34,000  Level FlightAware
03:58AM 39.7730 -31.4310 78° East 615 708 34,000  Level FlightAware
03:59AM 39.7950 -31.2980 78° East 615 708 34,000  Level FlightAware
03:59AM 39.8140 -31.1820 78° East 616 709 34,000  Level FlightAware
04:00AM 39.8340 -31.0560 78° East 614 707 34,000  Level FlightAware
04:00AM 39.8550 -30.9260 78° East 612 704 34,000 420 Level FlightAware
04:01AM 39.8750 -30.8030 78° East 612 704 34,500 840 Climbing FlightAware
04:02AM 39.8960 -30.6740 78° East 609 701 35,000 360 Climbing FlightAware
04:02AM 39.9160 -30.5450 79° East 608 700 35,000  Level FlightAware
04:03AM 39.9360 -30.4160 79° East 606 697 35,000  Level FlightAware
04:03AM 39.9540 -30.3020 78° East 604 695 35,000  Level FlightAware
04:04AM 39.9730 -30.1770 79° East 603 694 35,000  Level FlightAware
04:05AM 39.9940 -30.0450 78° East 603 694 35,000  Level FlightAware
04:05AM 40.0200 -29.9190 75° East 602 693 35,000  Level FlightAware
04:06AM 40.0480 -29.8050 72° East 602 693 35,000  Level FlightAware
04:06AM 40.0780 -29.6840 72° East 601 692 35,000  Level FlightAware
04:07AM 40.1100 -29.5600 71° East 601 692 35,000  Level FlightAware
04:07AM 40.1390 -29.4390 73° East 601 692 35,000  Level FlightAware
04:08AM 40.1670 -29.3250 72° East 602 693 35,000  Level FlightAware
04:09AM 40.1980 -29.1970 72° East 601 692 35,000  Level FlightAware
04:09AM 40.2280 -29.0720 73° East 602 693 35,000  Level FlightAware
04:10AM 40.2540 -28.9640 72° East 602 693 35,000  Level FlightAware
04:10AM 40.2840 -28.8390 72° East 603 694 35,000  Level FlightAware
04:11AM 40.3150 -28.7110 72° East 602 693 35,000  Level FlightAware
04:11AM 40.3420 -28.5960 73° East 601 692 35,000  Level FlightAware
04:12AM 40.3700 -28.4740 73° East 602 693 35,000  Level FlightAware
04:13AM 40.4010 -28.3450 72° East 602 693 35,000  Level FlightAware
04:13AM 40.4270 -28.2300 73° East 601 692 35,000  Level FlightAware
04:14AM 40.4560 -28.1040 73° East 602 693 35,000  Level FlightAware
04:14AM 40.4870 -27.9710 73° East 602 693 35,000  Level FlightAware
04:15AM 40.5110 -27.8660 73° East 602 693 35,000  Level FlightAware
04:16AM 40.5400 -27.7400 73° East 601 692 35,000  Level FlightAware
04:16AM 40.5690 -27.6110 73° East 602 693 35,000  Level FlightAware
04:17AM 40.5950 -27.4950 74° East 602 693 35,000  Level FlightAware
04:17AM 40.6240 -27.3650 74° East 602 693 35,000  Level FlightAware
04:18AM 40.6510 -27.2450 73° East 604 695 35,000  Level FlightAware
04:19AM 40.6810 -27.1110 74° East 603 694 35,000  Level FlightAware
04:19AM 40.7050 -27.0020 74° East 604 695 35,000  Level FlightAware
04:20AM 40.7320 -26.8780 74° East 604 695 35,000  Level FlightAware
04:20AM 40.7600 -26.7470 74° East 603 694 35,000  Level FlightAware
04:21AM 40.7850 -26.6310 74° East 603 694 35,000  Level FlightAware
04:21AM 40.8090 -26.5250 73° East 603 694 35,000  Level FlightAware
04:22AM 40.8420 -26.3690 74° East 604 695 35,000  Level FlightAware
04:23AM 40.8650 -26.2590 75° East 604 695 35,000  Level FlightAware
04:23AM 40.8930 -26.1240 75° East 603 694 35,000  Level FlightAware
04:24AM 40.9190 -26.0030 74° East 604 695 35,000  Level FlightAware
04:24AM 40.9440 -25.8860 74° East 605 696 35,000  Level FlightAware
04:25AM 40.9710 -25.7540 75° East 604 695 35,000  Level FlightAware
04:26AM 41.0020 -25.6010 75° East 603 694 35,000  Level FlightAware
04:26AM 41.0310 -25.4590 75° East 601 692 35,000  Level FlightAware
04:27AM 41.0660 -25.2960 74° East 602 693 35,000  Level FlightAware
04:28AM 41.0990 -25.1280 75° East 602 693 35,000  Level FlightAware
04:28AM 41.1210 -25.0130 76° East 603 694 35,000  Level FlightAware
04:29AM 41.1450 -24.8920 75° East 603 694 35,000  Level FlightAware
04:30AM 41.1640 -24.8020 74° East 603 694 35,000  Level FlightAware
04:30AM 41.1940 -24.6450 76° East 604 695 35,000  Level FlightAware
04:31AM 41.2150 -24.5410 75° East 604 695 35,000  Level FlightAware
04:31AM 41.2450 -24.3870 75° East 603 694 35,000  Level FlightAware
04:32AM 41.2650 -24.2830 76° East 603 694 35,000  Level FlightAware
04:33AM 41.2880 -24.1610 76° East 603 694 35,000  Level FlightAware
04:33AM 41.3200 -23.9930 76° East 601 692 35,000  Level FlightAware
04:34AM 41.3520 -23.8230 76° East 601 692 35,000  Level FlightAware
04:35AM 41.3740 -23.7060 76° East 600 690 35,000  Level FlightAware
04:35AM 41.3990 -23.5700 76° East 601 692 35,000  Level FlightAware
04:36AM 41.4200 -23.4600 76° East 601 692 35,000  Level FlightAware
04:37AM 41.4400 -23.3500 76° East 601 692 35,000  Level FlightAware
04:37AM 41.4610 -23.2400 76° East 601 692 35,000  Level FlightAware
04:38AM 41.4820 -23.1300 76° East 601 692 35,000  Level FlightAware
04:38AM 41.5020 -23.0190 76° East 601 692 35,000  Level FlightAware
04:39AM 41.5390 -22.8000 77° East 601 692 35,000  Level FlightAware
04:40AM 41.5620 -22.6770 76° East 601 692 35,000  Level FlightAware
04:40AM 41.5950 -22.4910 77° East 599 689 35,000  Level FlightAware
04:41AM 41.6160 -22.3780 76° East 599 689 35,000  Level FlightAware
04:42AM 41.6370 -22.2680 76° East 599 689 35,000  Level FlightAware
04:42AM 41.6570 -22.1570 76° East 599 689 35,000  Level FlightAware
04:43AM 41.6780 -22.0470 76° East 599 689 35,000  Level FlightAware
04:43AM 41.6980 -21.9370 76° East 599 689 35,000  Level FlightAware
04:44AM 41.7190 -21.8270 76° East 599 689 35,000  Level FlightAware
04:45AM 41.7400 -21.7140 76° East 599 689 35,000  Level FlightAware
04:45AM 41.7600 -21.6030 76° East 599 689 35,000  Level FlightAware
04:46AM 41.7810 -21.4930 76° East 599 689 35,000  Level FlightAware
04:46AM 41.8010 -21.3830 76° East 599 689 35,000  Level FlightAware
04:47AM 41.8220 -21.2720 76° East 599 689 35,000  Level FlightAware
04:48AM 41.8420 -21.1620 76° East 599 689 35,000  Level FlightAware
04:48AM 41.8630 -21.0510 76° East 599 689 35,000  Level FlightAware
04:49AM 41.8840 -20.9380 76° East 599 689 35,000  Level FlightAware
04:49AM 41.9040 -20.8270 76° East 599 689 35,000  Level FlightAware
04:52AM 41.9375 -20.3985 84° East  Level Estimated
04:53AM 41.9527 -20.1975 84° East  Level Estimated
04:54AM 41.9674 -19.9970 84° East  Level Estimated
04:55AM 41.9818 -19.7965 84° East  Level Estimated
04:56AM 41.9959 -19.5959 85° East  Level Estimated
04:57AM 42.0096 -19.3952 85° East  Level Estimated
04:58AM 42.0230 -19.1944 85° East  Level Estimated
04:59AM 42.0360 -18.9935 85° East  Level Estimated
05:00AM 42.0486 -18.7926 85° East  Level Estimated
05:01AM 42.0610 -18.5916 85° East  Level Estimated
05:02AM 42.0729 -18.3905 85° East  Level Estimated
05:03AM 42.0845 -18.1893 85° East  Level Estimated
05:04AM 42.0958 -17.9881 86° East  Level Estimated
05:05AM 42.1067 -17.7867 86° East  Level Estimated
05:06AM 42.1172 -17.5853 86° East  Level Estimated
05:07AM 42.1274 -17.3839 86° East  Level Estimated
05:08AM 42.1373 -17.1824 86° East  Level Estimated
05:09AM 42.1468 -16.9808 86° East  Level Estimated
05:10AM 42.1559 -16.7792 86° East  Level Estimated
05:11AM 42.1647 -16.5774 87° East  Level Estimated
05:12AM 42.1731 -16.3757 87° East  Level Estimated
05:13AM 42.1812 -16.1739 87° East  Level Estimated
05:14AM 42.1889 -15.9720 87° East  Level Estimated
05:15AM 42.1963 -15.7702 87° East  Level Estimated
05:16AM 42.2033 -15.5682 87° East  Level Estimated
05:17AM 42.2100 -15.3662 87° East  Level Estimated
05:18AM 42.2163 -15.1642 88° East  Level Estimated
05:19AM 42.2223 -14.9621 88° East  Level Estimated
05:20AM 42.2279 -14.7600 88° East  Level Estimated
05:21AM 42.2331 -14.5579 88° East  Level Estimated
05:22AM 42.2380 -14.3557 88° East  Level Estimated
05:23AM 42.2425 -14.1535 88° East  Level Estimated
05:24AM 42.2467 -13.9512 88° East  Level Estimated
05:25AM 42.2506 -13.7490 88° East  Level Estimated
05:26AM 42.2540 -13.5467 89° East  Level Estimated
05:27AM 42.2571 -13.3444 89° East  Level Estimated
05:28AM 42.2599 -13.1421 89° East  Level Estimated
05:29AM 42.2623 -12.9397 89° East  Level Estimated
05:30AM 42.2644 -12.7374 89° East  Level Estimated
05:30AM 41.8750 -11.5360 89° East 588 677 36,000  Level FlightAware
05:31AM 41.8680 -11.4050 94° East 589 678 36,000  Level FlightAware
05:31AM 41.8600 -11.2590 94° East 590 679 36,000  Level FlightAware
05:32AM 41.8540 -11.1390 94° East 590 679 36,000  Level FlightAware
05:33AM 41.8450 -10.9850 94° East 591 680 36,000  Level FlightAware
05:33AM 41.8390 -10.8650 94° East 591 680 36,000  Level FlightAware
05:34AM 41.8310 -10.7340 95° East 591 680 36,000  Level FlightAware
05:34AM 41.8230 -10.6020 95° East 591 680 36,000  Level FlightAware
05:35AM 41.8160 -10.4780 94° East 591 680 36,000  Level FlightAware
05:36AM 41.8070 -10.3320 95° East 592 681 36,000  Level FlightAware
05:36AM 41.7990 -10.2050 95° East 592 681 36,000  Level FlightAware
05:37AM 41.7890 -10.0590 95° East 592 681 36,000  Level FlightAware
05:37AM 41.7820 -9.9490 95° East 592 681 36,000  Level FlightAware
05:38AM 41.7740 -9.8290 95° East 591 680 36,000  Level FlightAware
05:39AM 41.7650 -9.6900 95° East 591 680 36,000  Level FlightAware
05:39AM 41.7550 -9.5340 95° East 591 680 36,000  Level FlightAware
05:40AM 41.7460 -9.4100 96° East 591 680 36,000  Level FlightAware
05:40AM 41.7370 -9.2760 95° East 591 680 36,000  Level FlightAware
05:41AM 41.7270 -9.1480 96° East 591 680 36,000  Level FlightAware
05:42AM 41.7180 -9.0240 96° East 591 680 36,000  Level FlightAware
05:42AM 41.7090 -8.8970 95° East 591 680 36,000  Level FlightAware
05:43AM 41.6990 -8.7660 96° East 591 680 36,000  Level FlightAware
05:43AM 41.6890 -8.6390 96° East 591 680 36,000  Level FlightAware
05:44AM 41.6800 -8.5150 96° East 591 680 36,000  Level FlightAware
05:44AM 41.6700 -8.3880 96° East 590 679 36,000  Level FlightAware
05:45AM 41.6600 -8.2650 96° East 591 680 36,000  Level FlightAware
05:46AM 41.6490 -8.1340 96° East 591 680 36,000  Level FlightAware
05:46AM 41.6390 -8.0070 96° East 591 680 36,000  Level FlightAware
05:47AM 41.6290 -7.8840 96° East 591 680 36,000  Level FlightAware
05:47AM 41.6180 -7.7570 97° East 589 678 36,000  Level FlightAware
05:48AM 41.6070 -7.6270 96° East 588 677 36,000  Level FlightAware
05:49AM 41.5960 -7.5010 97° East 589 678 36,000  Level FlightAware
05:49AM 41.5850 -7.3740 97° East 589 678 36,000  Level FlightAware
05:50AM 41.5720 -7.2300 97° East 591 680 36,000  Level FlightAware
05:50AM 41.5590 -7.0890 97° East 590 679 36,000  Level FlightAware
05:51AM 41.5480 -6.9620 97° East 592 681 36,000  Level FlightAware
05:52AM 41.5360 -6.8350 97° East 593 682 36,000  Level FlightAware
05:52AM 41.5220 -6.6830 97° East 594 684 36,000  Level FlightAware
05:53AM 41.5140 -6.5520 95° East 588 677 36,000  Level FlightAware
05:53AM 41.5200 -6.4450 86° East 576 663 36,000  Level FlightAware
05:54AM 41.5390 -6.3250 78° East 562 647 36,000  Level FlightAware
05:55AM 41.5690 -6.1930 73° East 560 644 36,000  Level FlightAware
05:55AM 41.5920 -6.0940 73° East 561 646 36,000  Level FlightAware
05:56AM 41.6180 -5.9810 73° East 561 646 36,000  Level FlightAware
05:56AM 41.6480 -5.8490 73° East 562 647 36,000  Level FlightAware
05:57AM 41.6750 -5.7290 73° East 563 648 36,000  Level FlightAware
05:57AM 41.6970 -5.6290 74° East 564 649 36,000  Level FlightAware
05:58AM 41.7270 -5.4960 73° East 564 649 36,000  Level FlightAware
05:59AM 41.7490 -5.3990 73° East 565 650 36,000  Level FlightAware
05:59AM 41.7760 -5.2780 73° East 566 651 36,000  Level FlightAware
06:00AM 41.8050 -5.1440 74° East 566 651 36,000  Level FlightAware
06:00AM 41.8270 -5.0430 74° East 565 650 36,000  Level FlightAware
06:01AM 41.8520 -4.9320 73° East 565 650 36,000  Level FlightAware
06:02AM 41.8770 -4.8140 74° East 565 650 36,000  Level FlightAware
06:02AM 41.9040 -4.6900 74° East 566 651 36,000  Level FlightAware
06:03AM 41.9320 -4.5620 74° East 565 650 36,000  Level FlightAware
06:03AM 41.9540 -4.4570 74° East 566 651 36,000  Level FlightAware
06:04AM 41.9810 -4.3290 74° East 566 651 36,000  Level FlightAware
06:04AM 42.0030 -4.2310 73° East 565 650 36,000  Level FlightAware
06:05AM 42.0330 -4.1020 73° East 554 638 36,000  Level FlightAware
06:06AM 42.0730 -3.9800 66° East 542 624 36,000  Level FlightAware
06:07AM 42.1210 -3.8440 65° Northeast 539 620 36,000  Level FlightAware
06:07AM 42.1570 -3.7440 64° Northeast 540 621 36,000  Level FlightAware
06:08AM 42.2030 -3.6130 65° Northeast 541 623 36,000  Level FlightAware
06:08AM 42.2350 -3.5210 65° Northeast 541 623 36,000  Level FlightAware
06:09AM 42.2700 -3.4170 66° East 543 625 36,000  Level FlightAware
06:09AM 42.3140 -3.2910 65° Northeast 544 626 36,000  Level FlightAware
06:10AM 42.3460 -3.1980 65° Northeast 544 626 36,000  Level FlightAware
06:11AM 42.3870 -3.0780 65° Northeast 542 624 36,000  Level FlightAware
06:11AM 42.4160 -2.9920 65° Northeast 541 623 36,000  Level FlightAware
06:12AM 42.4390 -2.8510 77° East 566 651 36,000  Level FlightAware
06:12AM 42.4310 -2.7760 98° East 581 669 36,000  Level FlightAware
06:13AM 42.4060 -2.6460 105° East 583 671 36,000  Level FlightAware
06:13AM 42.3830 -2.5370 106° East 582 670 36,000  Level FlightAware
06:14AM 42.3570 -2.4110 106° East 581 669 36,000  Level FlightAware
06:14AM 42.3320 -2.2960 106° East 581 669 36,000  Level FlightAware
06:15AM 42.3070 -2.1750 106° East 581 669 36,000  Level FlightAware
06:16AM 42.2790 -2.0460 106° East 579 666 36,000  Level FlightAware
06:16AM 42.2520 -1.9170 106° East 578 665 36,000  Level FlightAware
06:17AM 42.2230 -1.7860 107° East 576 663 36,000  Level FlightAware
06:17AM 42.2000 -1.6760 106° East 575 662 36,000  Level FlightAware
06:18AM 42.1740 -1.5560 106° East 572 658 36,000  Level FlightAware
06:19AM 42.1490 -1.4400 106° East 572 658 36,000  Level FlightAware
06:19AM 42.1190 -1.3070 107° East 570 656 36,000  Level FlightAware
06:20AM 42.0960 -1.2020 106° East 569 655 36,000  Level FlightAware
06:20AM 42.0700 -1.0830 106° East 568 654 36,000  Level FlightAware
06:21AM 42.0430 -0.9610 107° East 567 652 36,000  Level FlightAware
06:21AM 42.0180 -0.8500 107° East 567 652 36,000  Level FlightAware
06:22AM 41.9890 -0.7220 107° East 566 651 36,000  Level FlightAware
06:23AM 41.9630 -0.6050 107° East 565 650 36,000  Level FlightAware
06:23AM 41.9370 -0.4910 107° East 564 649 36,000  Level FlightAware
06:24AM 41.9090 -0.3700 107° East 564 649 36,000  Level FlightAware
06:24AM 41.8840 -0.2640 108° East 561 646 36,000  Level FlightAware
06:25AM 41.8540 -0.1340 107° East 561 646 36,000  Level FlightAware
06:26AM 41.8300 -0.0280 107° East 560 644 36,000  Level FlightAware
06:26AM 41.7990 0.1010 108° East 558 642 36,000  Level FlightAware
06:27AM 41.7730 0.2130 107° East 558 642 36,000  Level FlightAware
06:27AM 41.7470 0.3210 108° East 558 642 36,000  Level FlightAware
06:28AM 41.7200 0.4370 107° East 560 644 36,000  Level FlightAware
06:29AM 41.6910 0.5590 108° East 560 644 36,000  Level FlightAware
06:29AM 41.6795 0.6050 108° East 560 644 36,000  Level FlightAware ADS-B
06:29AM 41.6520 0.7201 108° East 559 643 36,000  Level FlightAware ADS-B
06:30AM 41.6267 0.8176 109° East 558 642 36,000  Level FlightAware ADS-B
06:30AM 41.6009 0.9148 110° East 558 642 36,000  Level FlightAware ADS-B
06:31AM 41.5750 1.0122 110° East 558 642 36,000  Level FlightAware ADS-B
06:31AM 41.5498 1.1061 110° East 557 641 36,000  Level FlightAware ADS-B
06:32AM 41.5245 1.2067 109° East 556 640 36,000  Level FlightAware ADS-B
06:32AM 41.5020 1.3049 107° East 555 639 36,000  Level FlightAware ADS-B
06:33AM 41.4807 1.3999 107° East 556 640 36,000  Level FlightAware ADS-B
06:33AM 41.4577 1.5014 107° East 556 640 36,000  Level FlightAware ADS-B
06:34AM 41.4286 1.6286 107° East 550 633 36,000  Level FlightAware ADS-B
06:35AM 41.4049 1.7277 108° East 542 624 36,000  Level FlightAware ADS-B
06:35AM 41.3737 1.8501 109° East 540 621 36,000  Level FlightAware ADS-B
06:36AM 41.3258 2.0354 109° East 541 623 36,000  Level FlightAware ADS-B
06:37AM 41.3020 2.1400 107° East 542 624 36,000  Level FlightAware
06:37AM 41.2957 2.1693 106° East 543 625 36,000  Level FlightAware ADS-B
06:38AM 41.2640 2.3640 102° East 542 624 36,000  Level FlightAware
06:38AM 41.2450 2.4820 102° East 541 623 36,000  Level FlightAware
06:39AM 41.2270 2.5950 102° East 541 623 36,000  Level FlightAware
06:40AM 41.2090 2.7020 103° East 539 620 36,000  Level FlightAware
06:40AM 41.1890 2.8180 103° East 538 619 36,000  Level FlightAware
06:41AM 41.1700 2.9270 103° East 539 620 36,000  Level FlightAware
06:41AM 41.1510 3.0370 103° East 538 619 36,000  Level FlightAware
06:42AM 41.1310 3.1520 103° East 537 618 36,000  Level FlightAware
06:43AM 41.1060 3.2960 103° East 535 616 36,000  Level FlightAware
06:43AM 41.0880 3.3960 103° East 534 615 36,000  Level FlightAware
06:44AM 41.0700 3.5010 103° East 533 613 36,000  Level FlightAware
06:44AM 41.0470 3.6310 103° East 531 611 36,000  Level FlightAware
06:45AM 41.0300 3.7260 103° East 531 611 36,000  Level FlightAware
06:46AM 41.0100 3.8340 104° East 531 611 36,000  Level FlightAware
06:46AM 40.9880 3.9540 104° East 530 610 36,000  Level FlightAware
06:47AM 40.9600 4.1120 103° East 529 609 36,000  Level FlightAware
06:48AM 40.9360 4.2410 104° East 527 606 36,000  Level FlightAware
06:48AM 40.9180 4.3420 103° East 528 608 36,000  Level FlightAware
06:49AM 40.8970 4.4520 104° East 528 608 36,000  Level FlightAware
06:49AM 40.8740 4.5770 104° East 527 606 36,000  Level FlightAware
06:50AM 40.8580 4.6720 103° East 531 611 36,000  Level FlightAware
06:51AM 40.8440 4.7810 100° East 531 611 36,000  Level FlightAware
06:51AM 40.8320 4.9390 96° East 532 612 36,000  Level FlightAware
06:52AM 40.8220 5.0660 96° East 532 612 36,000  Level FlightAware
06:53AM 40.8140 5.1670 96° East 532 612 36,000  Level FlightAware
06:53AM 40.8060 5.2660 96° East 532 612 36,000  Level FlightAware
06:54AM 40.7990 5.3650 95° East 532 612 36,000  Level FlightAware
06:55AM 40.7910 5.4640 96° East 532 612 36,000  Level FlightAware
06:55AM 40.7830 5.5630 96° East 532 612 36,000  Level FlightAware
06:56AM 40.7750 5.6620 96° East 532 612 36,000  Level FlightAware
06:56AM 40.7360 5.9170 101° East 533 613 36,000  Level FlightAware
06:57AM 40.7230 6.0360 98° East 532 612 36,000  Level FlightAware
06:58AM 40.7120 6.1450 98° East 532 612 36,000  Level FlightAware
06:58AM 40.7000 6.2610 98° East 533 613 36,000  Level FlightAware
06:59AM 40.6880 6.3700 98° East 535 616 36,000  Level FlightAware
06:59AM 40.6740 6.5030 98° East 536 617 36,000  Level FlightAware
07:00AM 40.6620 6.6130 98° East 537 618 36,000  Level FlightAware
07:01AM 40.6500 6.7270 98° East 537 618 36,000  Level FlightAware
07:01AM 40.6370 6.8400 99° East 538 619 36,000  Level FlightAware
07:02AM 40.6240 6.9570 98° East 541 623 36,000  Level FlightAware
07:02AM 40.6100 7.0880 98° East 544 626 36,000  Level FlightAware
07:03AM 40.5980 7.1860 99° East 545 627 36,000  Level FlightAware
07:03AM 40.5850 7.2980 99° East 548 631 36,000  Level FlightAware
07:04AM 40.5710 7.4160 99° East 547 629 36,000  Level FlightAware
07:05AM 40.5580 7.5280 99° East 546 628 36,000  Level FlightAware
07:05AM 40.5440 7.6420 99° East 546 628 36,000  Level FlightAware
07:06AM 40.5300 7.7570 99° East 547 629 36,000  Level FlightAware
07:07AM 40.5140 7.8920 99° East 547 629 36,000  Level FlightAware
07:07AM 40.5020 7.9900 99° East 548 631 36,000  Level FlightAware
07:08AM 40.4880 8.1050 99° East 547 629 36,000  Level FlightAware
07:08AM 40.4730 8.2200 100° East 547 629 36,000  Level FlightAware
07:09AM 40.4590 8.3350 99° East 545 627 36,000  Level FlightAware
07:09AM 40.4440 8.4490 100° East 543 625 36,000  Level FlightAware
07:10AM 40.4300 8.5620 99° East 540 621 36,000  Level FlightAware
07:11AM 40.4150 8.6760 100° East 540 621 36,000  Level FlightAware
07:11AM 40.4010 8.7890 99° East 538 619 36,000  Level FlightAware
07:12AM 40.3850 8.9080 100° East 539 620 36,000  Level FlightAware
07:12AM 40.3700 9.0240 100° East 538 619 36,000  Level FlightAware
07:13AM 40.3550 9.1330 100° East 535 616 36,000  Level FlightAware
07:13AM 40.3390 9.2540 100° East 533 613 36,000  Level FlightAware
07:14AM 40.3260 9.3520 100° East 533 613 36,000  Level FlightAware
07:15AM 40.3100 9.4660 100° East 534 615 36,000  Level FlightAware
07:15AM 40.2960 9.5680 100° East 533 613 36,000  Level FlightAware
07:16AM 40.2790 9.6920 100° East 533 613 36,000  Level FlightAware
07:16AM 40.2650 9.7940 100° East 534 615 36,000  Level FlightAware
07:17AM 40.2480 9.9140 100° East 533 613 36,000  Level FlightAware
07:18AM 40.2320 10.0290 100° East 533 613 36,000  Level FlightAware
07:18AM 40.2150 10.1430 101° East 534 615 36,000  Level FlightAware
07:19AM 40.2010 10.2440 100° East 533 613 36,000  Level FlightAware
07:19AM 40.1840 10.3580 101° East 533 613 36,000  Level FlightAware
07:20AM 40.1690 10.4660 100° East 533 613 36,000  Level FlightAware
07:20AM 40.1520 10.5790 101° East 533 613 36,000  Level FlightAware
07:21AM 40.1350 10.6930 101° East 534 615 36,000  Level FlightAware
07:22AM 40.1190 10.8040 101° East 534 615 36,000  Level FlightAware
07:22AM 40.1040 10.9050 101° East 535 616 36,000  Level FlightAware
07:23AM 40.0870 11.0190 101° East 535 616 36,000  Level FlightAware
07:23AM 40.0720 11.1140 102° East 536 617 36,000  Level FlightAware
07:24AM 40.0560 11.2220 101° East 535 616 36,000  Level FlightAware
07:24AM 40.0400 11.3260 101° East 535 616 36,000  Level FlightAware
07:25AM 40.0220 11.4430 101° East 533 613 36,000  Level FlightAware
07:26AM 40.0040 11.5560 102° East 531 611 36,000  Level FlightAware
07:26AM 39.9860 11.6690 102° East 530 610 36,000  Level FlightAware
07:27AM 39.9700 11.7730 101° East 530 610 36,000  Level FlightAware
07:27AM 39.9520 11.8850 102° East 532 612 36,000  Level FlightAware
07:28AM 39.9350 11.9950 101° East 531 611 36,000  Level FlightAware
07:29AM 39.9170 12.1040 102° East 533 613 36,000  Level FlightAware
07:29AM 39.9020 12.1990 102° East 534 615 36,000  Level FlightAware
07:30AM 39.8860 12.2960 102° East 535 616 36,000  Level FlightAware
07:30AM 39.8670 12.4100 102° East 536 617 36,000  Level FlightAware
07:31AM 39.8480 12.5260 102° East 536 617 36,000  Level FlightAware
07:31AM 39.8310 12.6330 102° East 536 617 36,000  Level FlightAware
07:32AM 39.8140 12.7340 102° East 535 616 36,000  Level FlightAware
07:32AM 39.7950 12.8470 102° East 535 616 36,000  Level FlightAware
07:33AM 39.7750 12.9630 103° East 535 616 36,000 540 Level FlightAware
07:34AM 39.7560 13.0760 102° East 538 619 36,700 840 Climbing FlightAware
07:34AM 39.7390 13.1780 102° East 542 624 37,000 240 Climbing FlightAware
07:35AM 39.7180 13.2950 103° East 542 624 37,000  Level FlightAware
07:35AM 39.7010 13.3960 102° East 540 621 37,000  Level FlightAware
07:36AM 39.6790 13.5190 103° East 539 620 37,000  Level FlightAware
07:37AM 39.6600 13.6320 102° East 537 618 37,000  Level FlightAware
07:37AM 39.6420 13.7290 104° East 535 616 37,000  Level FlightAware
07:38AM 39.6230 13.8420 102° East 533 613 37,000  Level FlightAware
07:38AM 39.6040 13.9440 104° East 532 612 37,000  Level FlightAware
07:39AM 39.5830 14.0620 103° East 530 610 37,000  Level FlightAware
07:39AM 39.5630 14.1730 103° East 529 609 37,000  Level FlightAware
07:40AM 39.5430 14.2840 103° East 529 609 37,000  Level FlightAware
07:41AM 39.5230 14.3930 103° East 531 611 37,000  Level FlightAware
07:41AM 39.5050 14.4920 103° East 532 612 37,000  Level FlightAware
07:42AM 39.4850 14.6000 103° East 532 612 37,000  Level FlightAware
07:42AM 39.4650 14.7110 103° East 533 613 37,000  Level FlightAware
07:43AM 39.4460 14.8080 104° East 534 615 37,000  Level FlightAware
07:44AM 39.4230 14.9320 103° East 535 616 37,000  Level FlightAware
07:44AM 39.4020 15.0440 104° East 535 616 37,000  Level FlightAware
07:45AM 39.3840 15.1400 104° East 534 615 37,000  Level FlightAware
07:45AM 39.3620 15.2510 104° East 533 613 37,000  Level FlightAware
07:46AM 39.3410 15.3650 103° East 532 612 37,000  Level FlightAware
07:47AM 39.3190 15.4760 104° East 531 611 37,000  Level FlightAware
07:47AM 39.3010 15.5740 103° East 529 609 37,000  Level FlightAware
07:48AM 39.2790 15.6840 104° East 528 608 37,000  Level FlightAware
07:48AM 39.2580 15.7890 104° East 529 609 37,000  Level FlightAware
07:49AM 39.2360 15.9020 104° East 529 609 37,000  Level FlightAware
07:49AM 39.2170 15.9990 104° East 529 609 37,000  Level FlightAware
07:50AM 39.1940 16.1120 105° East 529 609 37,000  Level FlightAware
07:51AM 39.1720 16.2250 104° East 530 610 37,000  Level FlightAware
07:51AM 39.1510 16.3260 105° East 530 610 37,000  Level FlightAware
07:52AM 39.1280 16.4420 104° East 529 609 37,000  Level FlightAware
07:52AM 39.1080 16.5390 105° East 530 610 37,000  Level FlightAware
07:53AM 39.0870 16.6460 104° East 530 610 37,000  Level FlightAware
07:53AM 39.0670 16.7440 105° East 530 610 37,000  Level FlightAware
07:54AM 39.0420 16.8620 105° East 530 610 37,000  Level FlightAware
07:55AM 39.0200 16.9690 105° East 530 610 37,000  Level FlightAware
07:55AM 38.9990 17.0700 105° East 530 610 37,000  Level FlightAware
07:56AM 38.9740 17.1810 106° East 529 609 37,000  Level FlightAware
07:56AM 38.9470 17.2890 108° East 530 610 37,000  Level FlightAware
07:57AM 38.9240 17.3790 108° East 531 611 37,000  Level FlightAware
07:58AM 38.8960 17.4970 107° East 531 611 37,000  Level FlightAware
07:58AM 38.8700 17.6050 107° East 532 612 37,000  Level FlightAware
07:59AM 38.8480 17.6980 107° East 532 612 37,000  Level FlightAware
07:59AM 38.8190 17.8120 108° East 531 611 37,000  Level FlightAware
08:00AM 38.7950 17.9110 107° East 531 611 37,000  Level FlightAware
08:01AM 38.7680 18.0190 108° East 530 610 37,000  Level FlightAware
08:01AM 38.7440 18.1180 107° East 530 610 37,000  Level FlightAware
08:02AM 38.7160 18.2280 108° East 530 610 37,000  Level FlightAware
08:02AM 38.6900 18.3330 108° East 531 611 37,000  Level FlightAware
08:03AM 38.6630 18.4400 108° East 530 610 37,000  Level FlightAware
08:03AM 38.6370 18.5450 108° East 529 609 37,000  Level FlightAware
08:04AM 38.6110 18.6460 108° East 530 610 37,000  Level FlightAware
08:05AM 38.5850 18.7500 108° East 530 610 37,000  Level FlightAware
08:05AM 38.5580 18.8540 108° East 529 609 37,000  Level FlightAware
08:06AM 38.5400 18.9220 109° East 529 609 37,000  Level FlightAware
08:06AM 38.5060 19.0460 109° East 527 606 37,000  Level FlightAware
08:07AM 38.4750 19.1640 109° East 526 605 37,000  Level FlightAware
08:07AM 38.4510 19.2530 109° East 526 605 37,000  Level FlightAware
08:08AM 38.4250 19.3540 108° East 529 609 37,000  Level FlightAware
08:09AM 38.3940 19.4690 109° East 529 609 37,000  Level FlightAware
08:09AM 38.3680 19.5690 108° East 528 608 37,000  Level FlightAware
08:10AM 38.3380 19.6810 109° East 528 608 37,000  Level FlightAware
08:11AM 38.3100 19.7840 109° East 528 608 37,000  Level FlightAware
08:11AM 38.2770 19.9070 109° East 527 606 37,000  Level FlightAware
08:12AM 38.2550 19.9890 109° East 526 605 37,000  Level FlightAware
08:12AM 38.2270 20.0910 109° East 526 605 37,000  Level FlightAware
08:13AM 38.1910 20.2200 110° East 526 605 37,000  Level FlightAware
08:14AM 38.1440 20.3910 109° East 524 603 37,000  Level FlightAware
08:14AM 38.1140 20.4950 110° East 523 602 37,000  Level FlightAware
08:15AM 38.0730 20.6090 115° Southeast 522 601 37,000  Level FlightAware
08:16AM 38.0280 20.7280 116° Southeast 521 600 37,000  Level FlightAware
08:16AM 37.9970 20.8140 115° Southeast 520 598 37,000  Level FlightAware
08:17AM 37.9580 20.9150 116° Southeast 520 598 37,000  Level FlightAware
08:18AM 37.9190 21.0170 116° Southeast 519 597 37,000  Level FlightAware
08:18AM 37.8830 21.1090 116° Southeast 518 596 37,000  Level FlightAware
08:19AM 37.8490 21.2020 115° Southeast 518 596 37,000  Level FlightAware
08:19AM 37.8110 21.3000 116° Southeast 517 595 37,000  Level FlightAware
08:20AM 37.7710 21.4010 117° Southeast 518 596 37,000  Level FlightAware
08:21AM 37.7370 21.4910 116° Southeast 518 596 37,000  Level FlightAware
08:21AM 37.7000 21.5860 116° Southeast 518 596 37,000  Level FlightAware
08:22AM 37.6610 21.6860 116° Southeast 518 596 37,000  Level FlightAware
08:22AM 37.6270 21.7730 116° Southeast 519 597 37,000  Level FlightAware
08:23AM 37.5880 21.8730 116° Southeast 520 598 37,000  Level FlightAware
08:23AM 37.5480 21.9770 116° Southeast 521 600 37,000  Level FlightAware
08:24AM 37.5150 22.0580 117° Southeast 521 600 37,000  Level FlightAware
08:25AM 37.4760 22.1590 116° Southeast 522 601 37,000  Level FlightAware
08:25AM 37.4400 22.2480 117° Southeast 522 601 37,000  Level FlightAware
08:26AM 37.4000 22.3560 115° Southeast 523 602 37,000  Level FlightAware
08:26AM 37.3740 22.4410 111° Southeast 523 602 37,000  Level FlightAware
08:27AM 37.3440 22.5440 110° East 524 603 37,000  Level FlightAware
08:28AM 37.3140 22.6490 110° East 524 603 37,000  Level FlightAware
08:28AM 37.2840 22.7490 111° Southeast 523 602 37,000  Level FlightAware
08:29AM 37.2540 22.8550 110° East 524 603 37,000  Level FlightAware
08:29AM 37.2260 22.9490 110° East 524 603 37,000  Level FlightAware
08:30AM 37.1950 23.0540 110° East 524 603 37,000  Level FlightAware
08:30AM 37.1660 23.1510 111° Southeast 524 603 37,000  Level FlightAware
08:31AM 37.1340 23.2590 110° East 524 603 37,000  Level FlightAware
08:32AM 37.1090 23.3420 111° Southeast 524 603 37,000  Level FlightAware
08:32AM 37.0780 23.4440 111° Southeast 523 602 37,000  Level FlightAware
08:33AM 37.0460 23.5510 111° Southeast 523 602 37,000  Level FlightAware
08:33AM 37.0160 23.6500 111° Southeast 522 601 37,000  Level FlightAware
08:34AM 36.9840 23.7540 111° Southeast 523 602 37,000  Level FlightAware
08:35AM 36.9520 23.8590 111° Southeast 523 602 37,000  Level FlightAware
08:35AM 36.9260 23.9440 111° Southeast 524 603 37,000  Level FlightAware
08:36AM 36.8930 24.0510 111° Southeast 524 603 37,000  Level FlightAware
08:36AM 36.8620 24.1500 111° Southeast 524 603 37,000  Level FlightAware
08:37AM 36.8310 24.2520 111° Southeast 525 604 37,000  Level FlightAware
08:37AM 36.8020 24.3450 111° Southeast 525 604 37,000  Level FlightAware
08:38AM 36.7720 24.4410 111° Southeast 525 604 37,000  Level FlightAware
08:39AM 36.7400 24.5450 111° Southeast 524 603 37,000  Level FlightAware
08:39AM 36.7030 24.6440 115° Southeast 524 603 37,000  Level FlightAware
08:40AM 36.6720 24.7290 114° Southeast 523 602 37,000  Level FlightAware
08:40AM 36.6340 24.8300 115° Southeast 524 603 37,000  Level FlightAware
08:41AM 36.5980 24.9290 114° Southeast 523 602 37,000  Level FlightAware
08:42AM 36.5670 25.0140 114° Southeast 524 603 37,000  Level FlightAware
08:42AM 36.5280 25.1210 114° Southeast 525 604 37,000  Level FlightAware
08:43AM 36.4930 25.2140 115° Southeast 526 605 37,000  Level FlightAware
08:43AM 36.4560 25.3160 114° Southeast 525 604 37,000  Level FlightAware
08:44AM 36.4240 25.4030 115° Southeast 524 603 37,000  Level FlightAware
08:45AM 36.3800 25.5210 115° Southeast 524 603 37,000  Level FlightAware
08:45AM 36.3470 25.6080 115° Southeast 525 604 37,000  Level FlightAware
08:46AM 36.3120 25.7040 114° Southeast 525 604 37,000  Level FlightAware
08:46AM 36.2730 25.8070 115° Southeast 524 603 37,000  Level FlightAware
08:47AM 36.2360 25.9050 115° Southeast 525 604 37,000  Level FlightAware
08:47AM 36.2040 25.9900 115° Southeast 524 603 37,000  Level FlightAware
08:48AM 36.1660 26.0900 115° Southeast 524 603 37,000  Level FlightAware
08:49AM 36.1300 26.1850 115° Southeast 524 603 37,000  Level FlightAware
08:49AM 36.0960 26.2740 115° Southeast 524 603 37,000  Level FlightAware
08:50AM 36.0560 26.3770 116° Southeast 522 601 37,000  Level FlightAware
08:50AM 36.0190 26.4730 115° Southeast 520 598 37,000  Level FlightAware
08:51AM 35.9820 26.5670 116° Southeast 520 598 37,000  Level FlightAware
08:52AM 35.9480 26.6580 115° Southeast 520 598 37,000  Level FlightAware
08:52AM 35.9110 26.7520 116° Southeast 520 598 37,000  Level FlightAware
08:53AM 35.8780 26.8370 116° Southeast 521 600 37,000  Level FlightAware
08:53AM 35.8370 26.9420 116° Southeast 522 601 37,000  Level FlightAware
08:54AM 35.8100 27.0130 115° Southeast 523 602 37,000  Level FlightAware
08:55AM 35.7630 27.1300 116° Southeast 525 604 37,000  Level FlightAware
08:55AM 35.7260 27.2240 116° Southeast 527 606 37,000  Level FlightAware
08:56AM 35.6870 27.3220 116° Southeast 529 609 37,000  Level FlightAware
08:56AM 35.6530 27.4080 116° Southeast 529 609 37,000  Level FlightAware
08:57AM 35.6130 27.5080 116° Southeast 530 610 37,000  Level FlightAware
08:57AM 35.5760 27.6030 116° Southeast 533 613 37,000  Level FlightAware
08:58AM 35.5400 27.6930 116° Southeast 534 615 37,000  Level FlightAware
08:59AM 35.5010 27.7910 116° Southeast 534 615 37,000  Level FlightAware
08:59AM 35.4630 27.8860 116° Southeast 536 617 37,000  Level FlightAware
09:00AM 35.4240 27.9810 117° Southeast 537 618 37,000  Level FlightAware
09:00AM 35.3840 28.0800 116° Southeast 537 618 37,000  Level FlightAware
09:01AM 35.3450 28.1750 117° Southeast 538 619 37,000  Level FlightAware
09:02AM 35.2990 28.2920 116° Southeast 538 619 37,000  Level FlightAware
09:02AM 35.2580 28.3900 117° Southeast 538 619 37,000  Level FlightAware
09:03AM 35.2140 28.4960 117° Southeast 536 617 37,000  Level FlightAware
09:04AM 35.1750 28.5910 117° Southeast 537 618 37,000  Level FlightAware
09:04AM 35.1300 28.7020 116° Southeast 537 618 37,000  Level FlightAware
09:05AM 35.0790 28.8240 117° Southeast 537 618 37,000  Level FlightAware
09:06AM 35.0450 28.9090 116° Southeast 537 618 37,000  Level FlightAware
09:06AM 35.0010 29.0130 117° Southeast 537 618 37,000  Level FlightAware
09:07AM 34.9610 29.1070 117° Southeast 537 618 37,000  Level FlightAware
09:07AM 34.9240 29.1940 117° Southeast 538 619 37,000  Level FlightAware
09:08AM 34.8850 29.2910 116° Southeast 538 619 37,000  Level FlightAware
09:08AM 34.8470 29.3770 118° Southeast 538 619 37,000  Level FlightAware
09:09AM 34.8060 29.4770 117° Southeast 541 623 37,000  Level FlightAware
09:09AM 34.7730 29.5530 118° Southeast 540 621 37,000  Level FlightAware
09:10AM 34.7280 29.6610 117° Southeast 536 617 37,000  Level FlightAware
09:11AM 34.6800 29.7780 116° Southeast 536 617 37,000  Level FlightAware
09:12AM 34.6150 29.9280 118° Southeast 536 617 37,000  Level FlightAware
09:12AM 34.5810 30.0130 116° Southeast 536 617 37,000  Level FlightAware
09:13AM 34.5230 30.1260 122° Southeast 538 619 37,000  Level FlightAware
09:14AM 34.4780 30.2190 120° Southeast 538 619 37,000  Level FlightAware
09:14AM 34.4300 30.3180 120° Southeast 538 619 37,000  Level FlightAware
09:15AM 34.3920 30.3960 121° Southeast 537 618 37,000  Level FlightAware
09:16AM 34.3330 30.5150 121° Southeast 532 612 37,000  Level FlightAware
09:16AM 34.2900 30.6050 120° Southeast 531 611 37,000  Level FlightAware
09:17AM 34.2470 30.6920 121° Southeast 531 611 37,000  Level FlightAware
09:17AM 34.2060 30.7780 120° Southeast 535 616 37,000  Level FlightAware
09:18AM 34.1640 30.8630 121° Southeast 536 617 37,000  Level FlightAware
09:18AM 34.1270 30.9400 120° Southeast 538 619 37,000  Level FlightAware
09:19AM 34.0820 31.0310 121° Southeast 540 621 37,000  Level FlightAware
09:20AM 34.0320 31.1320 121° Southeast 541 623 37,000  Level FlightAware
09:20AM 33.9850 31.2250 121° Southeast 544 626 37,000  Level FlightAware
09:21AM 33.9390 31.3190 121° Southeast 541 623 37,000  Level FlightAware
09:21AM 33.8900 31.4180 121° Southeast 543 625 37,000  Level FlightAware
09:22AM 33.8420 31.5150 121° Southeast 544 626 37,000  Level FlightAware
09:23AM 33.7940 31.6110 121° Southeast 545 627 37,000  Level FlightAware
09:23AM 33.7510 31.6980 121° Southeast 545 627 37,000  Level FlightAware
09:24AM 33.7030 31.7920 122° Southeast 544 626 37,000  Level FlightAware
09:24AM 33.6560 31.8850 121° Southeast 545 627 37,000  Level FlightAware
09:25AM 33.6110 31.9740 121° Southeast 545 627 37,000  Level FlightAware
09:25AM 33.5690 32.0570 121° Southeast 546 628 37,000 -540 Level FlightAware
09:26AM 33.5150 32.1610 122° Southeast 543 625 36,400 -1,080 Descending FlightAware
09:27AM 33.4720 32.2460 121° Southeast 544 626 35,700 -1,320 Descending FlightAware
09:27AM 33.4310 32.3260 122° Southeast 544 626 35,000 -1,380 Descending FlightAware
09:28AM 33.3780 32.4300 121° Southeast 551 634 34,100 -1,380 Descending FlightAware
09:28AM 33.3370 32.5110 121° Southeast 551 634 33,400 -1,020 Descending FlightAware
09:29AM 33.2930 32.5960 122° Southeast 543 625 33,000 -840 Descending FlightAware
09:30AM 33.2360 32.7070 122° Southeast 542 624 32,400 -840 Descending FlightAware
09:30AM 33.1780 32.8180 122° Southeast 537 618 31,900 -900 Descending FlightAware
09:31AM 33.1320 32.9080 121° Southeast 526 605 31,200 -1,920 Descending FlightAware
09:32AM 33.0650 33.0390 121° Southeast 510 587 29,100 -2,520 Descending FlightAware
09:32AM 33.0290 33.1110 121° Southeast 501 577 27,900 -2,340 Descending FlightAware
09:33AM 32.9850 33.1970 121° Southeast 485 558 26,500 -2,280 Descending FlightAware
09:34AM 32.9420 33.2780 122° Southeast 473 544 25,200 -2,160 Descending FlightAware
09:34AM 32.8980 33.3650 121° Southeast 453 521 23,800 -2,100 Descending FlightAware
09:35AM 32.8540 33.4510 121° Southeast 437 503 22,400 -1,920 Descending FlightAware
09:35AM 32.8250 33.5070 122° Southeast 201 231 21,500 -1,920 Descending FlightAware
09:36AM 32.7820 33.5910 121° Southeast 406 467 20,100 -2,040 Descending FlightAware
09:37AM 32.7470 33.6580 122° Southeast 392 451 19,000 -1,800 Descending FlightAware
09:37AM 32.7140 33.7210 122° Southeast 380 437 18,000 -1,800 Descending FlightAware
09:38AM 32.6790 33.7890 121° Southeast 382 440 16,900 -1,800 Descending FlightAware
09:38AM 32.6510 33.8430 122° Southeast 386 444 16,000 -1,800 Descending FlightAware
09:39AM 32.6100 33.9220 122° Southeast 383 441 14,700 -1,740 Descending FlightAware
09:40AM 32.5770 33.9840 122° Southeast 381 438 13,700 -1,740 Descending FlightAware
09:40AM 32.5460 34.0440 121° Southeast 373 429 12,700 -1,740 Descending FlightAware
09:41AM 32.5140 34.1060 121° Southeast 367 422 11,700 -1,680 Descending FlightAware
09:41AM 32.4830 34.1590 125° Southeast 362 417 10,800 -1,140 Descending FlightAware
09:42AM 32.4440 34.2100 132° Southeast 338 389 10,400 -540 Descending FlightAware
09:43AM 32.4080 34.2520 135° Southeast 313 360 10,200 -240 Descending FlightAware
09:43AM 32.3710 34.2960 135° Southeast 308 354 10,100 -1,200 Descending FlightAware
09:44AM 32.3490 34.3200 137° Southeast 296 341 9,000 -2,100 Descending FlightAware
09:44AM 32.3250 34.3490 134° Southeast 289 333 8,600 -960 Descending FlightAware
09:44AM 32.3050 34.3720 136° Southeast 280 322 8,300 -960 Descending FlightAware
09:45AM 32.2890 34.3900 136° Southeast 276 318 8,000 -900 Descending FlightAware
09:45AM 32.2700 34.4130 134° Southeast 274 315 7,700 -960 Descending FlightAware
09:45AM 32.2470 34.4390 136° Southeast 269 310 7,300 -1,020 Descending FlightAware
09:46AM 32.2310 34.4600 132° Southeast 269 310 7,000 -900 Descending FlightAware
09:46AM 32.2170 34.4840 125° Southeast 268 308 6,700 -480 Descending FlightAware
09:47AM 32.1990 34.5210 120° Southeast 265 305 6,600 -960 Descending FlightAware
09:47AM 32.2120 34.4940 300° West 252 290 5,600 -1,020 Descending FlightAware
09:48AM 32.1570 34.6000 121° Southeast 256 295 5,500 -780 Descending FlightAware
09:48AM 32.1430 34.6270 121° Southeast 262 302 5,000 -720 Descending FlightAware
09:48AM 32.1330 34.6460 122° Southeast 260 299 5,100 120 Climbing FlightAware
09:49AM 32.1150 34.6780 124° Southeast 259 298 5,100  Level FlightAware
09:49AM 32.0970 34.7110 123° Southeast 257 296 5,100  Level FlightAware
09:50AM 32.0820 34.7380 123° Southeast 238 274 5,100  Level FlightAware
09:50AM 32.0710 34.7580 123° Southeast 226 260 5,100 -180 Level FlightAware
09:50AM 32.0540 34.7830 129° Southeast 223 257 5,000 -600 Descending FlightAware
09:51AM 32.0410 34.7970 138° Southeast 218 251 4,700 -600 Descending FlightAware
09:51AM 32.0250 34.8150 136° Southeast 220 253 4,600 -180 Descending FlightAware
09:51AM 32.0090 34.8340 135° Southeast 215 247 4,600 -540 Level FlightAware
09:52AM 31.9910 34.8540 137° Southeast 204 235 4,200 -1,380 Descending FlightAware
09:52AM 31.9740 34.8780 130° Southeast 196 226 3,400 -1,500 Descending FlightAware
09:53AM 31.9730 34.8960 94° East 185 213 3,100 -1,140 Descending FlightAware
09:53AM 31.9750 34.9050 75° East 175 201 2,900 -1,020 Descending FlightAware
09:53AM 31.9800 34.9250 74° East 173 199 2,600 -840 Descending FlightAware
09:53AM 31.9810 34.9310 79° East 172 198 2,500 -840 Descending FlightAware
09:54AM 31.9860 34.9520 74° East 166 191 2,100 -1,020 Descending FlightAware
09:54AM 31.9890 34.9580 59° Northeast 164 189 2,000 -900 Descending FlightAware
09:54AM 31.9960 34.9630 31° Northeast 164 189 1,900 -900 Descending FlightAware
09:54AM 32.0030 34.9640 North 157 181 1,700 -780 Descending FlightAware
09:54AM 32.0170 34.9610 350° North 151 174 1,500 -600 Descending FlightAware
09:55AM 32.0220 34.9580 333° Northwest 152 175 1,400 -960 Descending FlightAware
09:55AM 32.0260 34.9510 304° West 148 170 1,200 -1,140 Descending FlightAware
09:55AM 32.0270 34.9460 283° West 148 170 1,100 -780 Descending FlightAware
09:55AM 32.0240 34.9350 252° West 154 177 800 -420 Descending FlightAware
09:56AM 32.0180 34.8920 261° West 155 178 600 -300 Descending FlightAware